Grande Italia — IBTF — position and weather

sailwx.info

Track history (hours):
 
Tides and Currents Weather Stations Pressure Air Temp Water Temp Dewpoint Dewpoint Depression Visibility Wind Speed Wind Dir Waves Ship Positions

Grande Italia

Last reported at 2015-Mar-28 16:29 UTC. Time now 2015-Mar-29 06:10 UTC.
Position N 38°14' E 008°46'.

Length 177 m; draft 8.3 m.

Type: Ship. MMSI: 247039300.

Date/timePositionNaut miles runAvg speedWind from/ knotsBaromVisibWave heightAir tempDewpointWater temp
2015-Mar-28 16:29N 38°14' E 008°46'1915.4
2015-Mar-28 15:15N 38°18' E 008°22'19915.7
2015-Mar-28 02:31N 38°50' E 004°10'1515.6
2015-Mar-28 01:33N 38°53' E 003°51'1615.6
2015-Mar-28 00:33N 38°56' E 003°32'1615.6
2015-Mar-27 23:33N 38°59' E 003°12'1615.6
2015-Mar-27 22:33N 39°02' E 002°52'1615.8
2015-Mar-27 21:33N 39°05' E 002°32'1615.8
2015-Mar-27 20:33N 39°07' E 002°12'1615.6
2015-Mar-27 19:33N 39°09' E 001°52'1615.8
2015-Mar-27 18:33N 39°12' E 001°32'1615.8
2015-Mar-27 17:33N 39°14' E 001°12'1615.7
2015-Mar-27 16:33N 39°17' E 000°52'4916.1
2015-Mar-27 13:29N 39°24' W 000°11'6 6.1
2015-Mar-27 12:32N 39°26' W 000°18'0 0.0
2015-Mar-27 11:32N 39°26' W 000°18'0 0.0
2015-Mar-27 10:32N 39°26' W 000°18'0 0.0
2015-Mar-27 09:32N 39°26' W 000°18'0 0.0
2015-Mar-27 08:32N 39°26' W 000°18'0 0.0
2015-Mar-27 07:32N 39°26' W 000°18'0 0.0
2015-Mar-27 06:32N 39°26' W 000°18'0 0.0
2015-Mar-27 05:32N 39°26' W 000°18'0 0.0
2015-Mar-27 04:32N 39°26' W 000°18'0 0.0
2015-Mar-27 03:32N 39°26' W 000°18'0 0.0
2015-Mar-27 02:32N 39°26' W 000°18'0 0.0
2015-Mar-27 01:29N 39°26' W 000°18'0 0.0
2015-Mar-27 00:32N 39°26' W 000°18'0 0.0
2015-Mar-26 23:32N 39°26' W 000°18'0 0.0
2015-Mar-26 22:32N 39°26' W 000°18'0 0.0
2015-Mar-26 21:32N 39°26' W 000°18'0 0.0
2015-Mar-26 20:32N 39°26' W 000°18'0 0.0
2015-Mar-26 19:32N 39°26' W 000°18'0 0.0
2015-Mar-26 18:32N 39°26' W 000°18'0 0.0
2015-Mar-26 17:33N 39°26' W 000°18'8412.0
2015-Mar-26 10:33N 38°02' W 000°06'1615.8
2015-Mar-26 09:33N 37°50' W 000°17'1615.6
2015-Mar-26 08:33N 37°37' W 000°28'1515.4
2015-Mar-26 07:33N 37°26' W 000°41'1414.4
2015-Mar-26 06:33N 37°16' W 000°55'1514.5
2015-Mar-26 05:32N 37°06' W 001°09'39612.8
2015-Mar-24 22:32N 37°27' W 009°26'1515.4
2015-Mar-24 21:33N 37°41' W 009°22'1514.9
2015-Mar-24 20:33N 37°56' W 009°18'1515.1
2015-Mar-24 19:33N 38°10' W 009°14'1212.3
2015-Mar-24 18:33N 38°19' W 009°02'1413.6
2015-Mar-24 17:33N 38°31' W 008°54'2 1.7
2015-Mar-24 16:32N 38°31' W 008°52'0 0.0
2015-Mar-24 15:32N 38°31' W 008°52'0 0.0
2015-Mar-24 14:32N 38°31' W 008°52'0 0.0
2015-Mar-24 13:32N 38°31' W 008°52'0 0.0
2015-Mar-24 12:32N 38°31' W 008°52'0 0.0
2015-Mar-24 11:32N 38°31' W 008°52'0 0.0
2015-Mar-24 10:32N 38°31' W 008°52'0 0.0
2015-Mar-24 09:32N 38°31' W 008°52'0 0.0
2015-Mar-24 08:33N 38°31' W 008°52'0 0.0
2015-Mar-24 07:33N 38°31' W 008°52'3 3.2
2015-Mar-24 06:33N 38°29' W 008°56'9 9.5
2015-Mar-24 05:33N 38°22' W 009°03'1413.6
2015-Mar-24 04:33N 38°19' W 009°20'1413.7
2015-Mar-24 03:33N 38°19' W 009°38'1312.8
2015-Mar-24 02:33N 38°26' W 009°52'1312.9
2015-Mar-24 01:33N 38°34' W 010°04'1615.8
2015-Mar-24 00:33N 38°50' W 010°07'78015.8
2015-Mar-21 23:13N 50°15' W 001°23'1514.8
2015-Mar-21 22:13N 50°19' W 001°01'2413.7
2015-Mar-21 20:27N 50°26' W 000°24'1314.9
2015-Mar-21 19:33N 50°29' W 000°04'1616.3
2015-Mar-21 18:33N 50°34' E 000°20'1817.5
2015-Mar-21 17:33N 50°42' E 000°45'1817.7
2015-Mar-21 16:33N 50°52' E 001°07'1616.4
2015-Mar-21 15:33N 51°03' E 001°26'1414.0
2015-Mar-21 14:34N 51°12' E 001°43'1313.4
2015-Mar-21 13:34N 51°23' E 001°57'1212.0
2015-Mar-21 12:33N 51°20' E 002°16'1413.6
2015-Mar-21 11:32N 51°23' E 002°38'2 1.9
2015-Mar-21 10:33N 51°24' E 002°40'2 2.1
2015-Mar-21 09:34N 51°23' E 002°42'1312.5
2015-Mar-21 08:33N 51°25' E 003°02'1515.0
2015-Mar-21 07:33N 51°25' E 003°26'1110.9
2015-Mar-21 06:33N 51°23' E 003°44'1211.7
2015-Mar-21 05:34N 51°24' E 004°02'1010.0
2015-Mar-21 04:34N 51°19' E 004°16'4 3.5
2015-Mar-21 03:33N 51°16' E 004°17'3 2.5
2015-Mar-21 02:32N 51°16' E 004°13'0 0.0
2015-Mar-21 01:26N 51°16' E 004°13'0 0.0
2015-Mar-21 00:29N 51°16' E 004°13'0 0.0
2015-Mar-20 23:29N 51°16' E 004°13'0 0.0
2015-Mar-20 22:29N 51°16' E 004°13'0 0.0
2015-Mar-20 21:32N 51°16' E 004°13'0 0.0
2015-Mar-20 20:32N 51°16' E 004°13'0 0.0
2015-Mar-20 19:32N 51°16' E 004°13'0 0.0
2015-Mar-20 18:32N 51°16' E 004°13'0 0.0
2015-Mar-20 17:32N 51°16' E 004°13'0 0.0
2015-Mar-20 16:32N 51°16' E 004°13'0 0.0
2015-Mar-20 15:32N 51°16' E 004°13'0 0.0
2015-Mar-20 14:26N 51°16' E 004°13'0 0.0
2015-Mar-20 13:29N 51°16' E 004°13'0 0.0
2015-Mar-20 12:29N 51°16' E 004°13'0 0.0
2015-Mar-20 11:32N 51°16' E 004°13'0 0.0
2015-Mar-20 10:32N 51°16' E 004°13'0 0.0
2015-Mar-20 09:32N 51°16' E 004°13'0 0.0
2015-Mar-20 08:32N 51°16' E 004°13'0 0.0
2015-Mar-20 07:32N 51°16' E 004°13'0 0.0
2015-Mar-20 06:32N 51°16' E 004°13'0 0.0
2015-Mar-20 05:29N 51°16' E 004°13'0 0.0
2015-Mar-20 04:32N 51°16' E 004°13'0 0.0
2015-Mar-20 03:33N 51°16' E 004°13'0 0.0
2015-Mar-20 02:34N 51°16' E 004°13'0 0.0
2015-Mar-20 01:34N 51°16' E 004°13'0 0.0
2015-Mar-20 00:33N 51°16' E 004°13'0 0.0
2015-Mar-19 23:34N 51°16' E 004°13'0 0.0
2015-Mar-19 22:33N 51°16' E 004°13'0 0.0
2015-Mar-19 21:34N 51°16' E 004°13'0 0.0
2015-Mar-19 20:33N 51°16' E 004°13'0 0.0
2015-Mar-19 19:34N 51°16' E 004°13'0 0.0
2015-Mar-19 18:34N 51°16' E 004°13'1 1.2
2015-Mar-19 17:34N 51°16' E 004°15'2 1.7
2015-Mar-19 16:33N 51°16' E 004°17'6 6.2
2015-Mar-19 15:33N 51°22' E 004°14'1010.0
2015-Mar-19 14:33N 51°26' E 003°59'9 9.4
2015-Mar-19 13:33N 51°21' E 003°47'7 7.2
2015-Mar-19 12:34N 51°28' E 003°41'0 0.0
2015-Mar-19 11:29N 51°28' E 003°41'0 0.0
2015-Mar-19 10:33N 51°28' E 003°41'0 0.0
2015-Mar-19 09:34N 51°28' E 003°41'0 0.0
2015-Mar-19 08:34N 51°28' E 003°41'0 0.0
2015-Mar-19 07:33N 51°28' E 003°41'0 0.0
2015-Mar-19 06:34N 51°28' E 003°41'0 0.0
2015-Mar-19 05:34N 51°28' E 003°41'0 0.0
2015-Mar-19 04:34N 51°28' E 003°41'0 0.0
2015-Mar-19 03:33N 51°28' E 003°41'0 0.0
2015-Mar-19 02:33N 51°28' E 003°41'0 0.0
2015-Mar-19 01:33N 51°28' E 003°41'0 0.0
2015-Mar-19 00:34N 51°28' E 003°41'0 0.0
2015-Mar-18 23:33N 51°28' E 003°41'0 0.0
2015-Mar-18 22:33N 51°28' E 003°41'0 0.0
2015-Mar-18 21:34N 51°28' E 003°41'0 0.0
2015-Mar-18 20:33N 51°28' E 003°41'0 0.0
2015-Mar-18 19:34N 51°28' E 003°41'0 0.0
2015-Mar-18 18:34N 51°28' E 003°41'4 3.7
2015-Mar-18 17:34N 51°26' E 003°36'1111.3
2015-Mar-18 16:33N 51°24' E 003°18'  
Track history (hours):
 
Tides and Currents Weather Stations Pressure Air Temp Water Temp Dewpoint Dewpoint Depression Visibility Wind Speed Wind Dir Waves Ship Positions

Grande Italia

Last reported at 2015-Mar-28 16:29 UTC. Time now 2015-Mar-29 06:10 UTC.
Position N 38°14' E 008°46'.

Length 177 m; draft 8.3 m.

Type: Ship. MMSI: 247039300.

Date/timePositionNaut miles runAvg speedWind from/ knotsBaromVisibWave heightAir tempDewpointWater temp
2015-Mar-28 16:29N 38°14' E 008°46'1915.4
2015-Mar-28 15:15N 38°18' E 008°22'19915.7
2015-Mar-28 02:31N 38°50' E 004°10'1515.6
2015-Mar-28 01:33N 38°53' E 003°51'1615.6
2015-Mar-28 00:33N 38°56' E 003°32'1615.6
2015-Mar-27 23:33N 38°59' E 003°12'1615.6
2015-Mar-27 22:33N 39°02' E 002°52'1615.8
2015-Mar-27 21:33N 39°05' E 002°32'1615.8
2015-Mar-27 20:33N 39°07' E 002°12'1615.6
2015-Mar-27 19:33N 39°09' E 001°52'1615.8
2015-Mar-27 18:33N 39°12' E 001°32'1615.8
2015-Mar-27 17:33N 39°14' E 001°12'1615.7
2015-Mar-27 16:33N 39°17' E 000°52'4916.1
2015-Mar-27 13:29N 39°24' W 000°11'6 6.1
2015-Mar-27 12:32N 39°26' W 000°18'0 0.0
2015-Mar-27 11:32N 39°26' W 000°18'0 0.0
2015-Mar-27 10:32N 39°26' W 000°18'0 0.0
2015-Mar-27 09:32N 39°26' W 000°18'0 0.0
2015-Mar-27 08:32N 39°26' W 000°18'0 0.0
2015-Mar-27 07:32N 39°26' W 000°18'0 0.0
2015-Mar-27 06:32N 39°26' W 000°18'0 0.0
2015-Mar-27 05:32N 39°26' W 000°18'0 0.0
2015-Mar-27 04:32N 39°26' W 000°18'0 0.0
2015-Mar-27 03:32N 39°26' W 000°18'0 0.0
2015-Mar-27 02:32N 39°26' W 000°18'0 0.0
2015-Mar-27 01:29N 39°26' W 000°18'0 0.0
2015-Mar-27 00:32N 39°26' W 000°18'0 0.0
2015-Mar-26 23:32N 39°26' W 000°18'0 0.0
2015-Mar-26 22:32N 39°26' W 000°18'0 0.0
2015-Mar-26 21:32N 39°26' W 000°18'0 0.0
2015-Mar-26 20:32N 39°26' W 000°18'0 0.0
2015-Mar-26 19:32N 39°26' W 000°18'0 0.0
2015-Mar-26 18:32N 39°26' W 000°18'0 0.0
2015-Mar-26 17:33N 39°26' W 000°18'8412.0
2015-Mar-26 10:33N 38°02' W 000°06'1615.8
2015-Mar-26 09:33N 37°50' W 000°17'1615.6
2015-Mar-26 08:33N 37°37' W 000°28'1515.4
2015-Mar-26 07:33N 37°26' W 000°41'1414.4
2015-Mar-26 06:33N 37°16' W 000°55'1514.5
2015-Mar-26 05:32N 37°06' W 001°09'39612.8
2015-Mar-24 22:32N 37°27' W 009°26'1515.4
2015-Mar-24 21:33N 37°41' W 009°22'1514.9
2015-Mar-24 20:33N 37°56' W 009°18'1515.1
2015-Mar-24 19:33N 38°10' W 009°14'1212.3
2015-Mar-24 18:33N 38°19' W 009°02'1413.6
2015-Mar-24 17:33N 38°31' W 008°54'2 1.7
2015-Mar-24 16:32N 38°31' W 008°52'0 0.0
2015-Mar-24 15:32N 38°31' W 008°52'0 0.0
2015-Mar-24 14:32N 38°31' W 008°52'0 0.0
2015-Mar-24 13:32N 38°31' W 008°52'0 0.0
2015-Mar-24 12:32N 38°31' W 008°52'0 0.0
2015-Mar-24 11:32N 38°31' W 008°52'0 0.0
2015-Mar-24 10:32N 38°31' W 008°52'0 0.0
2015-Mar-24 09:32N 38°31' W 008°52'0 0.0
2015-Mar-24 08:33N 38°31' W 008°52'0 0.0
2015-Mar-24 07:33N 38°31' W 008°52'3 3.2
2015-Mar-24 06:33N 38°29' W 008°56'9 9.5
2015-Mar-24 05:33N 38°22' W 009°03'1413.6
2015-Mar-24 04:33N 38°19' W 009°20'1413.7
2015-Mar-24 03:33N 38°19' W 009°38'1312.8
2015-Mar-24 02:33N 38°26' W 009°52'1312.9
2015-Mar-24 01:33N 38°34' W 010°04'1615.8
2015-Mar-24 00:33N 38°50' W 010°07'78015.8
2015-Mar-21 23:13N 50°15' W 001°23'1514.8
2015-Mar-21 22:13N 50°19' W 001°01'2413.7
2015-Mar-21 20:27N 50°26' W 000°24'1314.9
2015-Mar-21 19:33N 50°29' W 000°04'1616.3
2015-Mar-21 18:33N 50°34' E 000°20'1817.5
2015-Mar-21 17:33N 50°42' E 000°45'1817.7
2015-Mar-21 16:33N 50°52' E 001°07'1616.4
2015-Mar-21 15:33N 51°03' E 001°26'1414.0
2015-Mar-21 14:34N 51°12' E 001°43'1313.4
2015-Mar-21 13:34N 51°23' E 001°57'1212.0
2015-Mar-21 12:33N 51°20' E 002°16'1413.6
2015-Mar-21 11:32N 51°23' E 002°38'2 1.9
2015-Mar-21 10:33N 51°24' E 002°40'2 2.1
2015-Mar-21 09:34N 51°23' E 002°42'1312.5
2015-Mar-21 08:33N 51°25' E 003°02'1515.0
2015-Mar-21 07:33N 51°25' E 003°26'1110.9
2015-Mar-21 06:33N 51°23' E 003°44'1211.7
2015-Mar-21 05:34N 51°24' E 004°02'1010.0
2015-Mar-21 04:34N 51°19' E 004°16'4 3.5
2015-Mar-21 03:33N 51°16' E 004°17'3 2.5
2015-Mar-21 02:32N 51°16' E 004°13'0 0.0
2015-Mar-21 01:26N 51°16' E 004°13'0 0.0
2015-Mar-21 00:29N 51°16' E 004°13'0 0.0
2015-Mar-20 23:29N 51°16' E 004°13'0 0.0
2015-Mar-20 22:29N 51°16' E 004°13'0 0.0
2015-Mar-20 21:32N 51°16' E 004°13'0 0.0
2015-Mar-20 20:32N 51°16' E 004°13'0 0.0
2015-Mar-20 19:32N 51°16' E 004°13'0 0.0
2015-Mar-20 18:32N 51°16' E 004°13'0 0.0
2015-Mar-20 17:32N 51°16' E 004°13'0 0.0
2015-Mar-20 16:32N 51°16' E 004°13'0 0.0
2015-Mar-20 15:32N 51°16' E 004°13'0 0.0
2015-Mar-20 14:26N 51°16' E 004°13'0 0.0
2015-Mar-20 13:29N 51°16' E 004°13'0 0.0
2015-Mar-20 12:29N 51°16' E 004°13'0 0.0
2015-Mar-20 11:32N 51°16' E 004°13'0 0.0
2015-Mar-20 10:32N 51°16' E 004°13'0 0.0
2015-Mar-20 09:32N 51°16' E 004°13'0 0.0
2015-Mar-20 08:32N 51°16' E 004°13'0 0.0
2015-Mar-20 07:32N 51°16' E 004°13'0 0.0
2015-Mar-20 06:32N 51°16' E 004°13'0 0.0
2015-Mar-20 05:29N 51°16' E 004°13'0 0.0
2015-Mar-20 04:32N 51°16' E 004°13'0 0.0
2015-Mar-20 03:33N 51°16' E 004°13'0 0.0
2015-Mar-20 02:34N 51°16' E 004°13'0 0.0
2015-Mar-20 01:34N 51°16' E 004°13'0 0.0
2015-Mar-20 00:33N 51°16' E 004°13'0 0.0
2015-Mar-19 23:34N 51°16' E 004°13'0 0.0
2015-Mar-19 22:33N 51°16' E 004°13'0 0.0
2015-Mar-19 21:34N 51°16' E 004°13'0 0.0
2015-Mar-19 20:33N 51°16' E 004°13'0 0.0
2015-Mar-19 19:34N 51°16' E 004°13'0 0.0
2015-Mar-19 18:34N 51°16' E 004°13'1 1.2
2015-Mar-19 17:34N 51°16' E 004°15'2 1.7
2015-Mar-19 16:33N 51°16' E 004°17'6 6.2
2015-Mar-19 15:33N 51°22' E 004°14'1010.0
2015-Mar-19 14:33N 51°26' E 003°59'9 9.4
2015-Mar-19 13:33N 51°21' E 003°47'7 7.2
2015-Mar-19 12:34N 51°28' E 003°41'0 0.0
2015-Mar-19 11:29N 51°28' E 003°41'0 0.0
2015-Mar-19 10:33N 51°28' E 003°41'0 0.0
2015-Mar-19 09:34N 51°28' E 003°41'0 0.0
2015-Mar-19 08:34N 51°28' E 003°41'0 0.0
2015-Mar-19 07:33N 51°28' E 003°41'0 0.0
2015-Mar-19 06:34N 51°28' E 003°41'0 0.0
2015-Mar-19 05:34N 51°28' E 003°41'0 0.0
2015-Mar-19 04:34N 51°28' E 003°41'0 0.0
2015-Mar-19 03:33N 51°28' E 003°41'0 0.0
2015-Mar-19 02:33N 51°28' E 003°41'0 0.0
2015-Mar-19 01:33N 51°28' E 003°41'0 0.0
2015-Mar-19 00:34N 51°28' E 003°41'0 0.0
2015-Mar-18 23:33N 51°28' E 003°41'0 0.0
2015-Mar-18 22:33N 51°28' E 003°41'0 0.0
2015-Mar-18 21:34N 51°28' E 003°41'0 0.0
2015-Mar-18 20:33N 51°28' E 003°41'0 0.0
2015-Mar-18 19:34N 51°28' E 003°41'0 0.0
2015-Mar-18 18:34N 51°28' E 003°41'4 3.7
2015-Mar-18 17:34N 51°26' E 003°36'1111.3
2015-Mar-18 16:33N 51°24' E 003°18'  

Dump ship's entire track history